Chattaroy, WA (99003)

4:49 AM PDT on July 23, 2016 (GMT -0700)
Mt. Kit Carson | | Change Station

Elev 2887 ft 47.89 °N, 117.19 °W | Updated 25 seconds ago

Fog
Fog
52.7 °F
Feels Like 52.7 °F
N
0.2
Wind Variable Wind from NE
Gusts 2.5 mph

Today
High -- | Low -- °F
--% Chance of Precip.
Yesterday
High -- | Low -- °F
Precip. -- in
Pressure 30.14 in
Visibility 0.2 miles
Clouds
Dew Point 52 °F
Humidity 97%
Rainfall 0.00 in
Snow Depth Not available.
5:15 AM 8:35 PM
Waning Gibbous, 86% visible
SPECI KDEW 231121Z AUTO 00000KT 1/4SM FG VV002 10/09 A3014 RMK AO2 T01000094
Pressure 30.14 in
Visibility 0.2 miles
Clouds
Dew Point 52 °F
Humidity 97%
Rainfall 0.00 in
Snow Depth Not available.
5:15 AM 8:35 PM
Waning Gibbous, 86% visible
SPECI KDEW 231121Z AUTO 00000KT 1/4SM FG VV002 10/09 A3014 RMK AO2 T01000094

10-Day Weather Forecast

Almanac

Astronomy

Jul. 23, 2016 Rise Set
Actual Time
Civil Twilight
Nautical Twilight
Astronomical Twilight
Moon
Length of Visible Light
Length of Day
Tomorrow will be .
, % of the Moon is Illuminated

Today's Extremes

State Highs State Lows

Community

WunderPhotos

Upload Photos

1,926,810 photos uploaded!

WunderBlog® & News

Nearby

Air Quality

  Air Quality AQ Index Pollutant
Not available.

Snow Depth

Station Depth Elevation

Earthquake Activity

City Distance Mag. Time & Date
Minimum magnitude displayed is 2.5.

Coastal Water Temperatures

Place Temperature

Stations

Nearby Weather Stations

Station Location Temp. Windchill Dew Point Humidity Wind Precip. Elev Updated Type
                   

Watches & Warnings

There are currently no watches in effect.